Machelen, Belgium
Current Conditions -  °F | °C
As of 5:50 PM on Saturday 25 Oct 2014 (Local Time) from EBBR Reporting Station
Broken Clouds Broken Clouds  
Wind Chill: 13°   Ceiling: 4000
Heat Index: 13°   Visibility: 6mi
Dew Point:   Wind: 6mph
Humidity: 67%   Direction: 300°WNW
Pressure: 30.15"   Gusts: NA
Location:  50.91°N, 4.44°E
Report Text: EBBR 251550Z 30005KT 9999 BKN040 13/07 Q1021 NOSIG
Loading
Personal Weather Stations






























Interactive Weather Map
Tropical Storm Tracking
New forecast layout! Learn more

10-Day Weather Forecast

Advertisements
Track Severe Weather on mobile